createdAt,value
2023-05-16T00:01:10.707Z,25.85
2023-05-16T00:03:38.901Z,21.33
2023-05-16T00:06:06.963Z,21.98
2023-05-16T00:08:36.403Z,16.55
2023-05-16T00:11:04.238Z,18.63
2023-05-16T00:13:31.959Z,19.50
2023-05-16T00:16:02.546Z,17.33
2023-05-16T00:18:30.415Z,16.93
2023-05-16T00:20:58.597Z,17.00
2023-05-16T00:23:26.293Z,14.52
2023-05-16T00:25:56.061Z,16.10
2023-05-16T00:28:23.982Z,17.58
2023-05-16T00:30:51.718Z,15.40
2023-05-16T00:33:19.529Z,19.20
2023-05-16T00:35:47.391Z,15.23
2023-05-16T00:38:15.186Z,20.00
2023-05-16T00:40:42.948Z,13.30
2023-05-16T00:43:12.137Z,12.03
2023-05-16T00:45:39.925Z,13.67
2023-05-16T00:48:09.391Z,10.55
2023-05-16T00:50:38.362Z,9.57
2023-05-16T00:53:07.166Z,11.27
2023-05-16T00:55:35.014Z,10.55
2023-05-16T00:58:02.923Z,11.68
2023-05-16T01:00:32.646Z,10.35
2023-05-16T01:03:01.130Z,11.20
2023-05-16T01:05:30.157Z,10.48
2023-05-16T01:07:58.102Z,10.45
2023-05-16T01:10:31.267Z,14.23
2023-05-16T01:13:10.052Z,10.50
2023-05-16T01:15:45.911Z,8.82
2023-05-16T01:18:23.362Z,8.97
2023-05-16T01:20:57.888Z,9.15
2023-05-16T01:23:41.489Z,9.18
2023-05-16T01:26:16.994Z,8.50
2023-05-16T01:28:46.381Z,8.57
2023-05-16T01:31:14.259Z,9.23
2023-05-16T01:33:42.058Z,9.68
2023-05-16T01:36:18.364Z,8.47
2023-05-16T01:38:55.300Z,7.30
2023-05-16T01:41:28.792Z,9.07
2023-05-16T01:44:01.440Z,6.97
2023-05-16T01:46:35.207Z,8.47
2023-05-16T01:49:08.122Z,6.80
2023-05-16T01:51:40.418Z,6.83
2023-05-16T01:54:13.740Z,8.27
2023-05-16T01:56:49.362Z,5.47
2023-05-16T01:59:17.460Z,4.70
2023-05-16T02:01:45.333Z,5.93
2023-05-16T02:04:15.098Z,3.93
2023-05-16T02:06:43.449Z,3.63
2023-05-16T02:09:11.391Z,3.67
2023-05-16T02:11:43.461Z,4.17
2023-05-16T02:14:11.487Z,5.10
2023-05-16T02:16:39.883Z,7.47
2023-05-16T02:19:07.750Z,7.70
2023-05-16T02:21:35.680Z,7.77
2023-05-16T02:24:03.485Z,8.60
2023-05-16T02:26:31.244Z,10.60
2023-05-16T02:29:00.552Z,9.57
2023-05-16T02:31:29.204Z,8.17
2023-05-16T02:33:58.381Z,9.00
2023-05-16T02:36:26.277Z,9.60
2023-05-16T02:38:54.125Z,7.73
2023-05-16T02:41:24.011Z,9.73
2023-05-16T02:43:51.839Z,11.03
2023-05-16T02:46:25.619Z,11.17
2023-05-16T02:48:53.642Z,9.20
2023-05-16T02:51:22.539Z,11.60
2023-05-16T02:53:50.541Z,9.70
2023-05-16T02:56:18.504Z,13.13
2023-05-16T02:58:49.835Z,12.43
2023-05-16T03:01:18.025Z,14.90
2023-05-16T03:03:47.465Z,11.80
2023-05-16T03:06:15.389Z,14.17
2023-05-16T03:08:43.203Z,16.30
2023-05-16T03:11:11.193Z,14.20
2023-05-16T03:13:38.961Z,16.73
2023-05-16T03:16:07.476Z,11.60
2023-05-16T03:18:36.733Z,13.77
2023-05-16T03:21:06.231Z,11.87
2023-05-16T03:23:34.081Z,13.17
2023-05-16T03:26:04.607Z,13.87
2023-05-16T03:28:32.392Z,13.23
2023-05-16T03:31:00.521Z,10.13
2023-05-16T03:33:28.420Z,13.37
2023-05-16T03:35:56.353Z,15.57
2023-05-16T03:38:25.628Z,15.77
2023-05-16T03:40:53.429Z,9.33
2023-05-16T03:43:21.400Z,14.57
2023-05-16T03:45:49.257Z,12.67
2023-05-16T03:48:17.115Z,14.60
2023-05-16T03:50:45.644Z,12.03
2023-05-16T03:53:13.370Z,11.53
2023-05-16T03:55:42.469Z,15.93
2023-05-16T03:58:10.266Z,14.10
2023-05-16T04:00:38.028Z,16.47
2023-05-16T04:03:05.910Z,15.40
2023-05-16T04:05:33.782Z,12.23
2023-05-16T04:08:01.676Z,12.90
2023-05-16T04:10:29.440Z,12.53
2023-05-16T04:12:58.595Z,17.27
2023-05-16T04:15:26.440Z,16.03
2023-05-16T04:17:54.478Z,13.83
2023-05-16T04:20:22.265Z,21.20
2023-05-16T04:22:50.018Z,15.10
2023-05-16T04:25:17.859Z,12.67
2023-05-16T04:27:45.736Z,15.50
2023-05-16T04:30:15.600Z,19.07
2023-05-16T04:32:43.703Z,19.23
2023-05-16T04:35:12.110Z,15.90
2023-05-16T04:37:39.951Z,14.13
2023-05-16T04:40:09.888Z,13.47
2023-05-16T04:42:37.809Z,13.80
2023-05-16T04:45:10.906Z,12.07
2023-05-16T04:47:40.085Z,14.77
2023-05-16T04:50:09.996Z,12.63
2023-05-16T04:52:38.188Z,13.77
2023-05-16T04:55:06.902Z,14.03
2023-05-16T04:57:35.117Z,14.57
2023-05-16T05:00:07.885Z,16.50
2023-05-16T05:02:35.787Z,17.30
2023-05-16T05:05:05.473Z,13.17
2023-05-16T05:07:34.732Z,13.20
2023-05-16T05:10:02.970Z,16.27
2023-05-16T05:12:30.800Z,17.07
2023-05-16T05:14:58.616Z,13.33
2023-05-16T05:17:26.560Z,12.83
2023-05-16T05:19:54.457Z,15.50
2023-05-16T05:22:23.576Z,18.73
2023-05-16T05:24:51.927Z,14.10
2023-05-16T05:27:19.753Z,13.73
2023-05-16T05:29:47.551Z,17.73
2023-05-16T05:32:15.372Z,19.63
2023-05-16T05:34:43.481Z,12.90
2023-05-16T05:37:11.426Z,11.97
2023-05-16T05:39:40.918Z,12.77
2023-05-16T05:42:08.822Z,11.93
2023-05-16T05:44:37.934Z,14.57
2023-05-16T05:47:07.211Z,15.80
2023-05-16T05:49:35.833Z,12.80
2023-05-16T05:52:03.831Z,15.90
2023-05-16T05:54:31.590Z,17.90
2023-05-16T05:57:01.039Z,13.00
2023-05-16T05:59:28.770Z,12.27
2023-05-16T06:01:56.972Z,11.80
2023-05-16T06:04:24.766Z,15.37
2023-05-16T06:06:53.170Z,13.40
2023-05-16T06:09:22.502Z,11.07
2023-05-16T06:11:51.590Z,11.57
2023-05-16T06:14:21.365Z,13.07
2023-05-16T06:16:49.181Z,18.40
2023-05-16T06:19:17.125Z,17.17
2023-05-16T06:21:45.221Z,13.33
2023-05-16T06:24:12.998Z,12.37
2023-05-16T06:26:40.785Z,14.20
2023-05-16T06:29:08.788Z,10.03
2023-05-16T06:31:38.219Z,9.67
2023-05-16T06:34:06.082Z,9.83
2023-05-16T06:36:33.836Z,15.57
2023-05-16T06:39:01.681Z,9.53
2023-05-16T06:41:29.470Z,12.40
2023-05-16T06:43:57.639Z,12.93
2023-05-16T06:46:26.293Z,10.20
2023-05-16T06:48:55.589Z,10.30
2023-05-16T06:51:23.564Z,11.00
2023-05-16T06:53:51.366Z,15.35
2023-05-16T06:56:19.189Z,11.73
2023-05-16T06:58:47.104Z,13.50
2023-05-16T07:01:15.149Z,9.60
2023-05-16T07:03:43.462Z,9.30
2023-05-16T07:06:12.664Z,11.52
2023-05-16T07:08:40.916Z,11.40
2023-05-16T07:11:08.817Z,9.57
2023-05-16T07:13:36.681Z,14.38
2023-05-16T07:16:04.841Z,10.52
2023-05-16T07:18:35.166Z,10.50
2023-05-16T07:21:03.070Z,11.50
2023-05-16T07:23:32.329Z,14.18
2023-05-16T07:26:00.784Z,8.10
2023-05-16T07:28:28.680Z,11.43
2023-05-16T07:30:58.682Z,11.30
2023-05-16T07:33:27.389Z,11.15
2023-05-16T07:36:07.766Z,9.80
2023-05-16T07:38:44.515Z,8.50
2023-05-16T07:41:12.494Z,10.88
2023-05-16T07:43:42.628Z,8.18
2023-05-16T07:46:11.248Z,9.23
2023-05-16T07:48:41.123Z,8.93
2023-05-16T07:51:12.437Z,9.65
2023-05-16T07:53:40.296Z,8.20
2023-05-16T07:56:09.936Z,9.93
2023-05-16T07:58:37.990Z,11.60
2023-05-16T08:01:05.960Z,9.43
2023-05-16T08:03:33.944Z,9.70
2023-05-16T08:06:02.094Z,4.28
2023-05-16T08:08:29.987Z,6.20
2023-05-16T08:10:57.873Z,6.68
2023-05-16T08:13:27.136Z,7.13
2023-05-16T08:15:55.039Z,11.50
2023-05-16T08:18:23.046Z,5.63
2023-05-16T08:20:51.278Z,8.68
2023-05-16T08:23:20.025Z,6.38
2023-05-16T08:25:48.025Z,11.18
2023-05-16T08:28:15.814Z,9.13
2023-05-16T08:30:46.518Z,7.70
2023-05-16T08:33:16.073Z,8.18
2023-05-16T08:35:44.299Z,5.57
2023-05-16T08:38:12.139Z,4.68
2023-05-16T08:40:41.202Z,4.57
2023-05-16T08:43:09.484Z,7.45
2023-05-16T08:45:37.412Z,7.15
2023-05-16T08:48:10.464Z,6.50
2023-05-16T08:50:38.817Z,4.68
2023-05-16T08:53:08.495Z,6.50
2023-05-16T08:55:37.310Z,6.38
2023-05-16T08:58:05.698Z,10.50
2023-05-16T09:00:33.948Z,5.05
2023-05-16T09:03:02.441Z,4.60
2023-05-16T09:05:32.158Z,5.50
2023-05-16T09:08:00.500Z,6.30
2023-05-16T09:10:28.413Z,5.35
2023-05-16T09:12:56.257Z,5.55
2023-05-16T09:15:24.127Z,5.18
2023-05-16T09:17:52.669Z,6.22
2023-05-16T09:20:21.501Z,5.60
2023-05-16T09:22:54.901Z,3.30
2023-05-16T09:27:54.849Z,4.18
2023-05-16T09:30:24.956Z,4.85
2023-05-16T09:32:53.143Z,2.88
2023-05-16T09:35:35.058Z,4.00
2023-05-16T09:38:15.062Z,7.47
2023-05-16T09:40:44.443Z,6.53
2023-05-16T09:43:17.150Z,4.40
2023-05-16T09:45:47.924Z,3.95
2023-05-16T09:48:17.000Z,6.40
2023-05-16T09:50:49.834Z,5.50
2023-05-16T09:53:19.514Z,4.88
2023-05-16T09:55:47.347Z,5.38
2023-05-16T09:58:18.469Z,4.90
2023-05-16T10:00:47.038Z,2.78
2023-05-16T10:03:16.480Z,6.13
2023-05-16T10:05:44.528Z,3.95
2023-05-16T10:08:13.432Z,5.05
2023-05-16T10:10:42.979Z,4.45
2023-05-16T10:13:12.586Z,3.55
2023-05-16T10:15:41.143Z,3.22
2023-05-16T10:18:13.097Z,7.05
2023-05-16T10:20:43.355Z,2.70
2023-05-16T10:23:17.911Z,3.10
2023-05-16T10:25:48.966Z,5.70
2023-05-16T10:28:17.602Z,2.90
2023-05-16T10:30:46.902Z,4.50
2023-05-16T10:33:18.158Z,5.78
2023-05-16T10:35:46.938Z,3.63
2023-05-16T10:38:17.634Z,4.25
2023-05-16T10:40:48.328Z,4.57
2023-05-16T10:43:26.714Z,5.63
2023-05-16T10:45:58.696Z,4.40
2023-05-16T10:48:33.665Z,3.45
2023-05-16T10:51:03.145Z,4.10
2023-05-16T10:53:33.376Z,4.78
2023-05-16T10:56:12.994Z,4.35
2023-05-16T10:58:45.736Z,3.90
2023-05-16T11:01:22.223Z,4.05
2023-05-16T11:04:08.204Z,3.78
2023-05-16T11:06:44.935Z,3.58
2023-05-16T11:09:22.376Z,6.28
2023-05-16T11:11:58.572Z,4.53
2023-05-16T11:14:28.813Z,5.57
2023-05-16T11:17:03.124Z,5.13
2023-05-16T11:19:33.621Z,4.68
2023-05-16T11:22:22.884Z,3.28
2023-05-16T11:24:53.563Z,4.53
2023-05-16T11:27:25.382Z,4.38
2023-05-16T11:29:53.845Z,3.63
2023-05-16T11:32:23.102Z,3.70
2023-05-16T11:34:52.046Z,2.88
2023-05-16T11:37:21.122Z,2.17
2023-05-16T11:39:49.262Z,3.78
2023-05-16T11:42:17.994Z,2.47
2023-05-16T11:44:47.380Z,2.33
2023-05-16T11:47:15.652Z,5.35
2023-05-16T11:49:43.636Z,4.82
2023-05-16T11:52:11.588Z,3.30
2023-05-16T11:54:41.526Z,4.40
2023-05-16T11:57:10.238Z,1.83
2023-05-16T11:59:38.685Z,4.07
2023-05-16T12:02:09.805Z,4.13
2023-05-16T12:04:38.686Z,4.43
2023-05-16T12:07:06.549Z,4.90
2023-05-16T12:09:34.339Z,3.80
2023-05-16T12:12:06.934Z,4.03
2023-05-16T12:14:38.255Z,3.72
2023-05-16T12:17:08.359Z,3.72
2023-05-16T12:19:36.375Z,3.67
2023-05-16T12:22:04.396Z,6.88
2023-05-16T12:24:32.519Z,3.00
2023-05-16T12:27:00.396Z,3.13
2023-05-16T12:29:28.505Z,3.25
2023-05-16T12:31:56.535Z,4.90
2023-05-16T12:34:30.850Z,3.05
2023-05-16T12:37:02.148Z,3.53
2023-05-16T12:39:38.054Z,2.78
2023-05-16T12:42:07.293Z,2.53
2023-05-16T12:44:35.444Z,3.88
2023-05-16T12:47:03.654Z,3.67
2023-05-16T12:49:34.515Z,3.45
2023-05-16T12:52:05.689Z,4.50
2023-05-16T12:54:34.491Z,3.35
2023-05-16T12:57:02.334Z,2.28
2023-05-16T12:59:31.313Z,2.85
2023-05-16T13:01:59.292Z,4.82
2023-05-16T13:04:27.177Z,3.83
2023-05-16T13:06:59.562Z,3.63
2023-05-16T13:09:32.076Z,3.70
2023-05-16T13:12:00.747Z,2.38
2023-05-16T13:14:28.784Z,4.80
2023-05-16T13:16:56.658Z,6.30
2023-05-16T13:19:24.792Z,3.20
2023-05-16T13:21:52.781Z,3.78
2023-05-16T13:24:21.992Z,3.15
2023-05-16T13:26:49.874Z,4.18
2023-05-16T13:29:17.741Z,4.47
2023-05-16T13:31:45.807Z,2.22
2023-05-16T13:34:13.674Z,6.28
2023-05-16T13:36:53.046Z,3.70
2023-05-16T13:39:24.092Z,9.00
2023-05-16T13:41:52.505Z,4.97
2023-05-16T13:44:21.481Z,2.03
2023-05-16T13:46:49.548Z,2.15
2023-05-16T13:49:17.850Z,2.97
2023-05-16T13:51:45.806Z,3.45
2023-05-16T13:54:13.705Z,2.45
2023-05-16T13:56:43.189Z,3.67
2023-05-16T13:59:14.259Z,1.63
2023-05-16T14:01:46.458Z,2.90
2023-05-16T14:04:14.434Z,3.03
2023-05-16T14:06:42.374Z,5.00
2023-05-16T14:09:10.804Z,4.20
2023-05-16T14:11:38.584Z,2.53
2023-05-16T14:14:07.734Z,6.53
2023-05-16T14:16:35.650Z,2.90
2023-05-16T14:19:03.619Z,2.10
2023-05-16T14:21:31.473Z,2.15
2023-05-16T14:23:59.309Z,14.50
2023-05-16T14:26:27.459Z,3.50
2023-05-16T14:28:56.103Z,5.25
2023-05-16T14:31:25.480Z,2.45
2023-05-16T14:33:53.415Z,6.00
2023-05-16T14:36:21.230Z,2.28
2023-05-16T14:38:49.494Z,2.65
2023-05-16T14:41:17.459Z,1.80
2023-05-16T14:43:45.560Z,2.53
2023-05-16T14:46:14.248Z,3.08
2023-05-16T14:48:43.487Z,3.17
2023-05-16T14:51:11.970Z,5.00
2023-05-16T14:53:39.990Z,2.85
2023-05-16T14:56:08.158Z,2.88
2023-05-16T14:58:36.043Z,2.67
2023-05-16T15:01:04.240Z,4.07
2023-05-16T15:03:43.304Z,5.28
2023-05-16T15:06:16.600Z,4.55
2023-05-16T15:08:44.560Z,2.80
2023-05-16T15:11:12.646Z,2.55
2023-05-16T15:13:40.513Z,4.20
2023-05-16T15:16:08.737Z,5.72
2023-05-16T15:18:36.657Z,4.03
2023-05-16T15:21:04.813Z,3.85
2023-05-16T15:23:34.094Z,5.63
2023-05-16T15:26:02.091Z,3.28
2023-05-16T15:28:29.909Z,3.90
2023-05-16T15:30:57.736Z,3.95
2023-05-16T15:33:25.552Z,5.03
2023-05-16T15:35:53.630Z,5.35
2023-05-16T15:38:21.424Z,4.32
2023-05-16T15:40:55.303Z,5.97
2023-05-16T15:43:25.882Z,5.70
2023-05-16T15:45:53.735Z,3.40
2023-05-16T15:48:21.614Z,5.18
2023-05-16T15:50:49.512Z,4.45
2023-05-16T15:53:17.422Z,4.80
2023-05-16T15:55:45.271Z,5.70
2023-05-16T15:58:14.569Z,3.83
2023-05-16T16:00:42.741Z,3.53
2023-05-16T16:03:10.768Z,2.45
2023-05-16T16:05:38.745Z,4.63
2023-05-16T16:08:06.546Z,5.80
2023-05-16T16:10:34.632Z,3.30
2023-05-16T16:13:03.505Z,3.40
2023-05-16T16:15:36.049Z,4.05
2023-05-16T16:18:04.262Z,4.25
2023-05-16T16:20:32.129Z,5.78
2023-05-16T16:23:00.109Z,3.90
2023-05-16T16:25:28.175Z,4.10
2023-05-16T16:27:56.269Z,2.78
2023-05-16T16:30:24.226Z,3.95
2023-05-16T16:32:53.506Z,2.22
2023-05-16T16:35:22.488Z,2.47
2023-05-16T16:38:02.494Z,3.40
2023-05-16T16:40:33.997Z,4.82
2023-05-16T16:43:02.351Z,2.78
2023-05-16T16:45:31.023Z,5.10
2023-05-16T16:48:00.668Z,4.90
2023-05-16T16:50:28.873Z,3.65
2023-05-16T16:52:58.940Z,2.83
2023-05-16T16:55:27.025Z,2.97
2023-05-16T16:57:55.075Z,3.88
2023-05-16T17:00:23.294Z,4.05
2023-05-16T17:02:51.349Z,2.78
2023-05-16T17:05:20.757Z,2.40
2023-05-16T17:07:48.832Z,5.68
2023-05-16T17:10:17.761Z,2.63
2023-05-16T17:12:49.240Z,3.83
2023-05-16T17:15:18.051Z,5.80
2023-05-16T17:17:46.739Z,3.92
2023-05-16T17:20:14.591Z,3.13
2023-05-16T17:22:44.681Z,5.40
2023-05-16T17:25:12.571Z,3.58
2023-05-16T17:27:40.738Z,4.15
2023-05-16T17:30:10.471Z,3.67
2023-05-16T17:32:39.843Z,2.80
2023-05-16T17:35:08.179Z,3.65
2023-05-16T17:37:36.276Z,3.70
2023-05-16T17:40:08.338Z,4.10
2023-05-16T17:42:37.068Z,2.83
2023-05-16T17:45:05.565Z,3.80
2023-05-16T17:47:33.450Z,3.88
2023-05-16T17:50:01.494Z,5.20
2023-05-16T17:52:41.470Z,3.40
2023-05-16T17:55:10.980Z,4.63
2023-05-16T17:57:39.354Z,5.88
2023-05-16T18:00:09.229Z,6.57
2023-05-16T18:02:39.386Z,6.60
2023-05-16T18:05:08.204Z,3.92
2023-05-16T18:07:36.185Z,3.22
2023-05-16T18:10:04.958Z,4.10
2023-05-16T18:12:34.300Z,5.82
2023-05-16T18:15:02.597Z,5.78
2023-05-16T18:17:30.450Z,7.38
2023-05-16T18:19:58.538Z,4.75
2023-05-16T18:22:27.121Z,4.93
2023-05-16T18:24:54.923Z,6.40
2023-05-16T18:27:22.815Z,6.60
2023-05-16T18:29:52.020Z,7.20
2023-05-16T18:32:22.220Z,4.70
2023-05-16T18:34:50.261Z,4.03
2023-05-16T18:37:18.226Z,5.75
2023-05-16T18:39:46.056Z,3.75
2023-05-16T18:42:14.100Z,4.88
2023-05-16T18:44:41.982Z,7.78
2023-05-16T18:47:11.253Z,5.28
2023-05-16T18:49:39.581Z,4.57
2023-05-16T18:52:08.420Z,6.57
2023-05-16T18:54:36.914Z,7.97
2023-05-16T18:57:05.477Z,5.10
2023-05-16T18:59:33.907Z,8.27
2023-05-16T19:02:01.762Z,4.78
2023-05-16T19:04:31.115Z,6.38
2023-05-16T19:07:00.269Z,5.57
2023-05-16T19:09:28.866Z,5.05
2023-05-16T19:11:56.626Z,6.97
2023-05-16T19:14:24.442Z,4.63
2023-05-16T19:16:52.405Z,4.13
2023-05-16T19:19:20.439Z,4.47
2023-05-16T19:21:49.742Z,6.25
2023-05-16T19:24:17.964Z,4.82
2023-05-16T19:26:45.916Z,7.25
2023-05-16T19:29:13.794Z,5.20
2023-05-16T19:31:41.654Z,7.85
2023-05-16T19:34:09.503Z,4.40
2023-05-16T19:36:37.446Z,7.03
2023-05-16T19:39:06.839Z,4.18
2023-05-16T19:41:34.744Z,6.35
2023-05-16T19:44:03.356Z,4.88
2023-05-16T19:46:32.048Z,5.93
2023-05-16T19:49:00.414Z,7.43
2023-05-16T19:51:40.536Z,3.88
2023-05-16T19:54:10.972Z,3.83
2023-05-16T19:56:39.083Z,6.65
2023-05-16T19:59:06.963Z,3.63
2023-05-16T20:01:34.833Z,4.55
2023-05-16T20:04:02.833Z,5.30
2023-05-16T20:06:31.546Z,5.40
2023-05-16T20:08:59.344Z,6.50
2023-05-16T20:11:28.564Z,4.05
2023-05-16T20:13:59.387Z,7.00
2023-05-16T20:16:27.656Z,6.35
2023-05-16T20:18:55.592Z,5.45
2023-05-16T20:21:23.541Z,6.05
2023-05-16T20:23:51.419Z,3.00
2023-05-16T20:26:19.280Z,4.10
2023-05-16T20:28:48.486Z,4.85
2023-05-16T20:31:16.361Z,4.80
2023-05-16T20:33:44.187Z,4.38
2023-05-16T20:36:12.058Z,6.03
2023-05-16T20:38:40.013Z,5.28
2023-05-16T20:41:08.003Z,5.63
2023-05-16T20:43:35.977Z,6.50
2023-05-16T20:46:05.223Z,3.83
2023-05-16T20:48:33.064Z,3.80
2023-05-16T20:51:01.410Z,4.32
2023-05-16T20:53:29.240Z,6.72
2023-05-16T20:55:57.146Z,7.80
2023-05-16T20:58:24.964Z,6.10
2023-05-16T21:00:52.867Z,4.60
2023-05-16T21:03:22.017Z,4.40
2023-05-16T21:05:50.112Z,4.82
2023-05-16T21:08:17.920Z,5.82
2023-05-16T21:10:45.751Z,11.30
2023-05-16T21:13:13.556Z,4.80
2023-05-16T21:15:41.330Z,6.57
2023-05-16T21:18:09.357Z,6.22
2023-05-16T21:20:38.515Z,7.35
2023-05-16T21:23:06.375Z,4.60
2023-05-16T21:25:34.293Z,5.55
2023-05-16T21:28:02.086Z,5.57
2023-05-16T21:30:30.007Z,3.50
2023-05-16T21:32:58.161Z,6.15
2023-05-16T21:35:26.835Z,5.28
2023-05-16T21:37:56.135Z,6.10
2023-05-16T21:40:25.669Z,6.35
2023-05-16T21:42:53.797Z,5.03
2023-05-16T21:45:21.713Z,5.25
2023-05-16T21:47:49.605Z,5.53
2023-05-16T21:50:18.210Z,5.35
2023-05-16T21:52:46.139Z,5.32
2023-05-16T21:55:15.342Z,4.07
2023-05-16T21:57:43.223Z,6.03
2023-05-16T22:00:12.597Z,4.78
2023-05-16T22:02:41.448Z,10.65
2023-05-16T22:05:10.132Z,7.53
2023-05-16T22:07:38.583Z,7.60
2023-05-16T22:10:07.705Z,6.37
2023-05-16T22:12:36.945Z,7.20
2023-05-16T22:15:05.367Z,4.20
2023-05-16T22:17:33.338Z,3.33
2023-05-16T22:20:02.071Z,4.55
2023-05-16T22:22:29.902Z,4.82
2023-05-16T22:24:57.754Z,5.03
2023-05-16T22:27:25.684Z,4.80
2023-05-16T22:29:54.863Z,5.87
2023-05-16T22:32:22.869Z,3.40
2023-05-16T22:34:50.757Z,3.67
2023-05-16T22:37:18.573Z,4.93
2023-05-16T22:39:46.382Z,6.43
2023-05-16T22:42:14.169Z,5.17
2023-05-16T22:44:42.007Z,4.77
2023-05-16T22:47:11.191Z,6.23
2023-05-16T22:49:39.185Z,3.97
2023-05-16T22:52:07.406Z,5.10
2023-05-16T22:54:35.208Z,5.07
2023-05-16T22:57:02.981Z,5.07
2023-05-16T22:59:31.993Z,5.97
2023-05-16T23:02:00.034Z,5.30
2023-05-16T23:04:29.165Z,5.70
2023-05-16T23:06:57.066Z,4.80
2023-05-16T23:09:25.009Z,3.47
2023-05-16T23:11:52.789Z,8.53
2023-05-16T23:14:20.557Z,6.20
2023-05-16T23:16:48.385Z,3.90
2023-05-16T23:19:16.225Z,6.83
2023-05-16T23:21:45.541Z,4.97
2023-05-16T23:24:13.525Z,7.50
2023-05-16T23:26:41.352Z,5.37
2023-05-16T23:29:09.112Z,7.90
2023-05-16T23:31:37.029Z,6.60
2023-05-16T23:34:05.002Z,4.43
2023-05-16T23:36:33.097Z,4.60
2023-05-16T23:39:02.367Z,5.93
2023-05-16T23:41:30.255Z,5.03
2023-05-16T23:43:58.118Z,5.00
2023-05-16T23:46:25.944Z,4.60
2023-05-16T23:48:53.763Z,5.33
2023-05-16T23:51:21.683Z,4.57
2023-05-16T23:53:49.556Z,4.83
2023-05-16T23:56:18.770Z,5.70
2023-05-16T23:58:46.556Z,5.43
